Terminal Aerodrome Forecast
Issued by NWS

Home | Current Version | Previous Version | Text Only | Print | Product List | Glossary On
Versions: 1 2 3 4 5 6 7 8 9 10 11 12 13
000
FTAK31 PANC 230540
TAFAIL
TAF
PAIL 230540Z 2306/2406 16007KT P6SM VCSH SCT025 BKN040
      TEMPO 2306/2310 -SHRA BKN025
     FM231800 16009KT P6SM -RA SCT015 OVC025
     FM240300 13009KT P6SM -RA SCT015 OVC025=

USA.gov is the U.S. government's official web portal to all federal, state and local government web resources and services.